sensor_id;sensor_type;location;lat;lon;timestamp;pressure;altitude;pressure_sealevel;temperature;humidity
41686;BME280;27370;42.764;23.432;2023-09-12T00:00:44;95754.88;;;11.92;100.00
41686;BME280;27370;42.764;23.432;2023-09-12T00:03:10;95756.28;;;12.04;100.00
41686;BME280;27370;42.764;23.432;2023-09-12T00:05:36;95764.50;;;11.97;100.00
41686;BME280;27370;42.764;23.432;2023-09-12T00:08:02;95754.75;;;12.03;100.00
41686;BME280;27370;42.764;23.432;2023-09-12T00:10:29;95762.72;;;11.87;100.00
41686;BME280;27370;42.764;23.432;2023-09-12T00:12:55;95759.84;;;11.98;100.00
41686;BME280;27370;42.764;23.432;2023-09-12T00:15:21;95759.91;;;11.94;100.00
41686;BME280;27370;42.764;23.432;2023-09-12T00:17:46;95762.16;;;11.99;100.00
41686;BME280;27370;42.764;23.432;2023-09-12T00:20:13;95760.09;;;12.07;100.00
41686;BME280;27370;42.764;23.432;2023-09-12T00:22:39;95773.81;;;11.96;100.00
41686;BME280;27370;42.764;23.432;2023-09-12T00:25:05;95772.69;;;11.93;100.00
41686;BME280;27370;42.764;23.432;2023-09-12T00:27:31;95765.25;;;11.71;100.00
41686;BME280;27370;42.764;23.432;2023-09-12T00:29:56;95767.09;;;11.81;100.00
41686;BME280;27370;42.764;23.432;2023-09-12T00:32:22;95770.31;;;11.69;100.00
41686;BME280;27370;42.764;23.432;2023-09-12T00:34:47;95772.38;;;11.61;100.00
41686;BME280;27370;42.764;23.432;2023-09-12T00:37:13;95769.84;;;11.74;100.00
41686;BME280;27370;42.764;23.432;2023-09-12T00:39:38;95770.78;;;11.63;100.00
41686;BME280;27370;42.764;23.432;2023-09-12T00:42:04;95774.56;;;11.70;100.00
41686;BME280;27370;42.764;23.432;2023-09-12T00:44:30;95771.31;;;11.51;100.00
41686;BME280;27370;42.764;23.432;2023-09-12T00:46:56;95775.69;;;11.45;100.00
41686;BME280;27370;42.764;23.432;2023-09-12T00:49:23;95771.06;;;11.42;100.00
41686;BME280;27370;42.764;23.432;2023-09-12T00:51:50;95771.72;;;11.50;100.00
41686;BME280;27370;42.764;23.432;2023-09-12T00:54:16;95777.72;;;11.38;100.00
41686;BME280;27370;42.764;23.432;2023-09-12T00:56:42;95775.31;;;11.13;100.00
41686;BME280;27370;42.764;23.432;2023-09-12T00:59:08;95773.22;;;11.24;100.00
41686;BME280;27370;42.764;23.432;2023-09-12T01:01:34;95774.41;;;11.23;100.00
41686;BME280;27370;42.764;23.432;2023-09-12T01:04:00;95784.97;;;11.14;100.00
41686;BME280;27370;42.764;23.432;2023-09-12T01:06:28;95785.50;;;11.01;100.00
41686;BME280;27370;42.764;23.432;2023-09-12T01:08:55;95784.63;;;11.08;100.00
41686;BME280;27370;42.764;23.432;2023-09-12T01:11:21;95783.19;;;11.00;100.00
41686;BME280;27370;42.764;23.432;2023-09-12T01:13:47;95783.88;;;11.08;100.00
41686;BME280;27370;42.764;23.432;2023-09-12T01:16:13;95790.22;;;10.94;100.00
41686;BME280;27370;42.764;23.432;2023-09-12T01:18:38;95791.44;;;10.89;100.00
41686;BME280;27370;42.764;23.432;2023-09-12T01:26:56;95794.66;;;10.77;100.00
41686;BME280;27370;42.764;23.432;2023-09-12T01:29:24;95789.69;;;10.72;100.00
41686;BME280;27370;42.764;23.432;2023-09-12T01:31:52;95793.03;;;10.83;100.00
41686;BME280;27370;42.764;23.432;2023-09-12T01:34:19;95793.56;;;10.71;100.00
41686;BME280;27370;42.764;23.432;2023-09-12T01:36:44;95794.66;;;10.77;100.00
41686;BME280;27370;42.764;23.432;2023-09-12T01:39:10;95795.47;;;10.74;100.00
41686;BME280;27370;42.764;23.432;2023-09-12T01:41:40;95787.41;;;10.67;100.00
41686;BME280;27370;42.764;23.432;2023-09-12T01:44:06;95787.38;;;10.70;100.00
41686;BME280;27370;42.764;23.432;2023-09-12T01:46:35;95792.72;;;10.78;100.00
41686;BME280;27370;42.764;23.432;2023-09-12T01:49:02;95782.41;;;10.62;100.00
41686;BME280;27370;42.764;23.432;2023-09-12T01:51:29;95798.28;;;10.60;100.00
41686;BME280;27370;42.764;23.432;2023-09-12T01:53:55;95797.56;;;10.56;100.00
41686;BME280;27370;42.764;23.432;2023-09-12T01:56:22;95796.50;;;10.46;100.00
41686;BME280;27370;42.764;23.432;2023-09-12T01:58:48;95803.41;;;10.51;100.00
41686;BME280;27370;42.764;23.432;2023-09-12T02:01:14;95805.31;;;10.54;100.00
41686;BME280;27370;42.764;23.432;2023-09-12T02:03:39;95802.00;;;10.35;100.00
41686;BME280;27370;42.764;23.432;2023-09-12T02:06:05;95802.00;;;10.35;100.00
41686;BME280;27370;42.764;23.432;2023-09-12T02:08:30;95808.59;;;10.31;100.00
41686;BME280;27370;42.764;23.432;2023-09-12T02:10:56;95808.53;;;10.38;100.00
41686;BME280;27370;42.764;23.432;2023-09-12T02:13:22;95806.31;;;10.29;100.00
41686;BME280;27370;42.764;23.432;2023-09-12T02:15:47;95805.59;;;10.14;100.00
41686;BME280;27370;42.764;23.432;2023-09-12T02:18:13;95805.25;;;10.09;100.00
41686;BME280;27370;42.764;23.432;2023-09-12T02:20:41;95799.41;;;10.21;100.00
41686;BME280;27370;42.764;23.432;2023-09-12T02:23:10;95807.22;;;10.05;100.00
41686;BME280;27370;42.764;23.432;2023-09-12T02:25:36;95811.16;;;9.97;100.00
41686;BME280;27370;42.764;23.432;2023-09-12T02:28:02;95806.53;;;9.94;100.00
41686;BME280;27370;42.764;23.432;2023-09-12T02:30:28;95807.00;;;9.81;100.00
41686;BME280;27370;42.764;23.432;2023-09-12T02:32:54;95807.69;;;9.96;100.00
41686;BME280;27370;42.764;23.432;2023-09-12T02:35:19;95812.00;;;9.83;100.00
41686;BME280;27370;42.764;23.432;2023-09-12T02:37:45;95808.88;;;9.88;100.00
41686;BME280;27370;42.764;23.432;2023-09-12T02:40:11;95813.97;;;9.79;100.00
41686;BME280;27370;42.764;23.432;2023-09-12T02:42:37;95816.63;;;9.86;100.00
41686;BME280;27370;42.764;23.432;2023-09-12T02:45:03;95811.97;;;9.87;100.00
41686;BME280;27370;42.764;23.432;2023-09-12T02:47:29;95811.63;;;9.81;100.00
41686;BME280;27370;42.764;23.432;2023-09-12T02:49:54;95813.53;;;9.84;100.00
41686;BME280;27370;42.764;23.432;2023-09-12T02:52:20;95819.81;;;9.74;100.00
41686;BME280;27370;42.764;23.432;2023-09-12T02:54:45;95815.94;;;9.71;100.00
41686;BME280;27370;42.764;23.432;2023-09-12T02:57:11;95817.50;;;9.65;100.00
41686;BME280;27370;42.764;23.432;2023-09-12T02:59:36;95815.50;;;9.80;100.00
41686;BME280;27370;42.764;23.432;2023-09-12T03:02:02;95814.75;;;9.72;100.00
41686;BME280;27370;42.764;23.432;2023-09-12T03:04:27;95814.78;;;9.69;100.00
41686;BME280;27370;42.764;23.432;2023-09-12T03:06:54;95815.53;;;9.73;100.00
41686;BME280;27370;42.764;23.432;2023-09-12T03:09:20;95815.19;;;9.67;100.00
41686;BME280;27370;42.764;23.432;2023-09-12T03:11:46;95819.81;;;9.67;100.00
41686;BME280;27370;42.764;23.432;2023-09-12T03:14:11;95825.22;;;9.74;100.00
41686;BME280;27370;42.764;23.432;2023-09-12T03:16:37;95818.19;;;9.83;100.00
41686;BME280;27370;42.764;23.432;2023-09-12T03:19:03;95819.69;;;9.88;100.00
41686;BME280;27370;42.764;23.432;2023-09-12T03:21:30;95827.16;;;9.73;100.00
41686;BME280;27370;42.764;23.432;2023-09-12T03:23:56;95830.31;;;9.54;100.00
41686;BME280;27370;42.764;23.432;2023-09-12T03:26:21;95834.53;;;9.59;100.00
41686;BME280;27370;42.764;23.432;2023-09-12T03:28:49;95835.34;;;9.56;100.00
41686;BME280;27370;42.764;23.432;2023-09-12T03:31:15;95823.69;;;9.66;100.00
41686;BME280;27370;42.764;23.432;2023-09-12T03:33:42;95836.47;;;9.58;100.00
41686;BME280;27370;42.764;23.432;2023-09-12T03:36:08;95837.69;;;9.43;100.00
41686;BME280;27370;42.764;23.432;2023-09-12T03:38:35;95836.13;;;9.49;100.00
41686;BME280;27370;42.764;23.432;2023-09-12T03:41:01;95832.72;;;9.34;100.00
41686;BME280;27370;42.764;23.432;2023-09-12T03:43:27;95837.72;;;9.36;100.00
41686;BME280;27370;42.764;23.432;2023-09-12T03:45:54;95828.03;;;9.52;100.00
41686;BME280;27370;42.764;23.432;2023-09-12T03:48:20;95831.06;;;9.62;100.00
41686;BME280;27370;42.764;23.432;2023-09-12T03:50:45;95826.19;;;9.32;100.00
41686;BME280;27370;42.764;23.432;2023-09-12T03:53:14;95827.31;;;9.27;100.00
41686;BME280;27370;42.764;23.432;2023-09-12T03:55:40;95826.50;;;9.41;100.00
41686;BME280;27370;42.764;23.432;2023-09-12T03:58:06;95826.50;;;9.41;100.00
41686;BME280;27370;42.764;23.432;2023-09-12T04:00:32;95823.88;;;9.30;100.00
41686;BME280;27370;42.764;23.432;2023-09-12T04:02:57;95831.50;;;9.46;100.00
41686;BME280;27370;42.764;23.432;2023-09-12T04:05:25;95834.38;;;9.07;100.00
41686;BME280;27370;42.764;23.432;2023-09-12T04:07:51;95837.06;;;9.10;100.00
41686;BME280;27370;42.764;23.432;2023-09-12T04:10:18;95840.13;;;9.12;100.00
41686;BME280;27370;42.764;23.432;2023-09-12T04:12:43;95842.00;;;9.23;100.00
41686;BME280;27370;42.764;23.432;2023-09-12T04:15:09;95831.59;;;9.28;100.00
41686;BME280;27370;42.764;23.432;2023-09-12T04:17:35;95840.09;;;9.19;100.00
41686;BME280;27370;42.764;23.432;2023-09-12T04:20:01;95833.94;;;9.19;100.00
41686;BME280;27370;42.764;23.432;2023-09-12T04:22:26;95843.97;;;9.18;100.00
41686;BME280;27370;42.764;23.432;2023-09-12T04:24:53;95838.53;;;9.22;100.00
41686;BME280;27370;42.764;23.432;2023-09-12T04:27:19;95833.88;;;9.37;100.00
41686;BME280;27370;42.764;23.432;2023-09-12T04:29:45;95838.09;;;9.38;100.00
41686;BME280;27370;42.764;23.432;2023-09-12T04:32:11;95836.13;;;9.45;100.00
41686;BME280;27370;42.764;23.432;2023-09-12T04:34:36;95838.44;;;9.54;100.00
41686;BME280;27370;42.764;23.432;2023-09-12T04:37:02;95838.31;;;9.72;100.00
41686;BME280;27370;42.764;23.432;2023-09-12T04:39:28;95835.53;;;9.90;100.00
41686;BME280;27370;42.764;23.432;2023-09-12T04:41:55;95839.25;;;10.13;100.00
41686;BME280;27370;42.764;23.432;2023-09-12T04:44:20;95842.66;;;10.28;100.00
41686;BME280;27370;42.764;23.432;2023-09-12T04:46:46;95841.47;;;10.29;100.00
41686;BME280;27370;42.764;23.432;2023-09-12T04:49:12;95842.22;;;10.33;100.00
41686;BME280;27370;42.764;23.432;2023-09-12T04:51:37;95849.81;;;10.53;100.00
41686;BME280;27370;42.764;23.432;2023-09-12T04:54:04;95856.69;;;10.61;100.00
41686;BME280;27370;42.764;23.432;2023-09-12T04:56:30;95857.75;;;10.74;100.00
41686;BME280;27370;42.764;23.432;2023-09-12T04:58:55;95853.41;;;10.84;100.00
41686;BME280;27370;42.764;23.432;2023-09-12T05:01:21;95856.31;;;11.03;100.00
41686;BME280;27370;42.764;23.432;2023-09-12T05:03:46;95858.47;;;11.19;100.00
41686;BME280;27370;42.764;23.432;2023-09-12T05:06:13;95849.81;;;11.31;100.00
41686;BME280;27370;42.764;23.432;2023-09-12T05:08:39;95854.97;;;11.56;100.00
41686;BME280;27370;42.764;23.432;2023-09-12T05:11:05;95848.88;;;11.79;100.00
41686;BME280;27370;42.764;23.432;2023-09-12T05:13:31;95852.97;;;11.91;100.00
41686;BME280;27370;42.764;23.432;2023-09-12T05:15:56;95852.34;;;12.10;100.00
41686;BME280;27370;42.764;23.432;2023-09-12T05:18:23;95855.63;;;12.25;100.00
41686;BME280;27370;42.764;23.432;2023-09-12T05:20:48;95853.22;;;12.77;100.00
41686;BME280;27370;42.764;23.432;2023-09-12T05:23:14;95844.41;;;13.76;100.00
41686;BME280;27370;42.764;23.432;2023-09-12T05:25:39;95845.47;;;14.83;100.00
41686;BME280;27370;42.764;23.432;2023-09-12T05:28:05;95844.56;;;15.77;100.00
41686;BME280;27370;42.764;23.432;2023-09-12T05:30:31;95838.59;;;16.20;100.00
41686;BME280;27370;42.764;23.432;2023-09-12T05:32:57;95840.03;;;16.37;100.00
41686;BME280;27370;42.764;23.432;2023-09-12T05:35:22;95836.06;;;16.64;100.00
41686;BME280;27370;42.764;23.432;2023-09-12T05:37:50;95837.50;;;16.68;100.00
41686;BME280;27370;42.764;23.432;2023-09-12T05:40:17;95843.28;;;16.07;100.00
41686;BME280;27370;42.764;23.432;2023-09-12T05:42:43;95841.88;;;16.15;100.00
41686;BME280;27370;42.764;23.432;2023-09-12T05:45:09;95841.75;;;16.06;100.00
41686;BME280;27370;42.764;23.432;2023-09-12T05:47:35;95841.13;;;15.60;100.00
41686;BME280;27370;42.764;23.432;2023-09-12T05:50:00;95839.91;;;15.32;100.00
41686;BME280;27370;42.764;23.432;2023-09-12T05:52:26;95841.41;;;15.49;100.00
41686;BME280;27370;42.764;23.432;2023-09-12T05:54:51;95843.94;;;15.56;100.00
41686;BME280;27370;42.764;23.432;2023-09-12T05:57:17;95842.31;;;15.59;100.00
41686;BME280;27370;42.764;23.432;2023-09-12T05:59:43;95846.06;;;15.65;100.00
41686;BME280;27370;42.764;23.432;2023-09-12T06:02:08;95846.09;;;15.78;100.00
41686;BME280;27370;42.764;23.432;2023-09-12T06:04:36;95840.97;;;16.05;100.00
41686;BME280;27370;42.764;23.432;2023-09-12T06:07:02;95846.88;;;16.04;100.00
41686;BME280;27370;42.764;23.432;2023-09-12T06:09:28;95846.00;;;15.94;100.00
41686;BME280;27370;42.764;23.432;2023-09-12T06:11:54;95847.06;;;15.84;100.00
41686;BME280;27370;42.764;23.432;2023-09-12T06:14:19;95845.78;;;15.88;100.00
41686;BME280;27370;42.764;23.432;2023-09-12T06:16:45;95848.41;;;15.92;100.00
41686;BME280;27370;42.764;23.432;2023-09-12T06:19:11;95851.94;;;16.18;100.00
41686;BME280;27370;42.764;23.432;2023-09-12T06:21:36;95848.44;;;16.30;100.00
41686;BME280;27370;42.764;23.432;2023-09-12T06:24:28;95849.63;;;16.29;100.00
41686;BME280;27370;42.764;23.432;2023-09-12T06:26:53;95853.44;;;16.44;100.00
41686;BME280;27370;42.764;23.432;2023-09-12T06:29:19;95848.00;;;16.44;100.00
41686;BME280;27370;42.764;23.432;2023-09-12T06:31:44;95855.97;;;16.51;100.00
41686;BME280;27370;42.764;23.432;2023-09-12T06:34:10;95854.09;;;16.74;100.00
41686;BME280;27370;42.764;23.432;2023-09-12T06:36:36;95854.84;;;16.87;100.00
41686;BME280;27370;42.764;23.432;2023-09-12T06:39:03;95858.34;;;16.88;100.00
41686;BME280;27370;42.764;23.432;2023-09-12T06:41:30;95863.19;;;16.83;100.00
41686;BME280;27370;42.764;23.432;2023-09-12T06:43:56;95864.66;;;16.97;100.00
41686;BME280;27370;42.764;23.432;2023-09-12T06:46:24;95857.31;;;17.07;100.00
41686;BME280;27370;42.764;23.432;2023-09-12T06:48:50;95858.84;;;17.08;100.00
41686;BME280;27370;42.764;23.432;2023-09-12T06:51:18;95865.34;;;17.01;100.00
41686;BME280;27370;42.764;23.432;2023-09-12T06:53:43;95864.06;;;17.15;100.00
41686;BME280;27370;42.764;23.432;2023-09-12T06:56:09;95860.88;;;17.29;100.00
41686;BME280;27370;42.764;23.432;2023-09-12T06:58:34;95859.44;;;16.90;100.00
41686;BME280;27370;42.764;23.432;2023-09-12T07:01:06;95859.31;;;16.94;100.00
41686;BME280;27370;42.764;23.432;2023-09-12T07:03:33;95858.41;;;17.09;100.00
41686;BME280;27370;42.764;23.432;2023-09-12T07:05:59;95867.88;;;17.30;100.00
41686;BME280;27370;42.764;23.432;2023-09-12T07:08:25;95856.34;;;17.35;100.00
41686;BME280;27370;42.764;23.432;2023-09-12T07:10:50;95865.41;;;17.45;100.00
41686;BME280;27370;42.764;23.432;2023-09-12T07:13:16;95860.22;;;17.25;100.00
41686;BME280;27370;42.764;23.432;2023-09-12T07:15:42;95857.69;;;17.53;100.00
41686;BME280;27370;42.764;23.432;2023-09-12T07:18:07;95866.53;;;17.69;100.00
41686;BME280;27370;42.764;23.432;2023-09-12T07:20:36;95854.03;;;17.90;100.00
41686;BME280;27370;42.764;23.432;2023-09-12T07:23:01;95860.31;;;18.00;100.00
41686;BME280;27370;42.764;23.432;2023-09-12T07:25:27;95868.53;;;18.00;100.00
41686;BME280;27370;42.764;23.432;2023-09-12T07:27:52;95856.63;;;17.94;100.00
41686;BME280;27370;42.764;23.432;2023-09-12T07:30:18;95857.25;;;17.98;100.00
41686;BME280;27370;42.764;23.432;2023-09-12T07:32:44;95856.16;;;18.17;100.00
41686;BME280;27370;42.764;23.432;2023-09-12T07:35:10;95861.13;;;18.10;100.00
41686;BME280;27370;42.764;23.432;2023-09-12T07:37:35;95869.97;;;18.45;100.00
41686;BME280;27370;42.764;23.432;2023-09-12T07:40:01;95866.44;;;18.75;100.00
41686;BME280;27370;42.764;23.432;2023-09-12T07:42:31;95861.28;;;18.95;100.00
41686;BME280;27370;42.764;23.432;2023-09-12T07:44:57;95857.66;;;19.17;100.00
41686;BME280;27370;42.764;23.432;2023-09-12T07:47:23;95861.47;;;19.19;100.00
41686;BME280;27370;42.764;23.432;2023-09-12T07:49:54;95855.25;;;19.37;100.00
41686;BME280;27370;42.764;23.432;2023-09-12T07:52:21;95852.94;;;19.45;100.00
41686;BME280;27370;42.764;23.432;2023-09-12T07:54:46;95851.16;;;19.69;100.00
41686;BME280;27370;42.764;23.432;2023-09-12T07:57:12;95847.28;;;19.85;100.00
41686;BME280;27370;42.764;23.432;2023-09-12T07:59:37;95848.38;;;19.78;100.00
41686;BME280;27370;42.764;23.432;2023-09-12T08:02:03;95852.16;;;19.99;100.00
41686;BME280;27370;42.764;23.432;2023-09-12T08:04:29;95844.28;;;20.25;100.00
41686;BME280;27370;42.764;23.432;2023-09-12T08:06:54;95843.41;;;20.19;100.00
41686;BME280;27370;42.764;23.432;2023-09-12T08:09:20;95845.19;;;20.40;100.00
41686;BME280;27370;42.764;23.432;2023-09-12T08:12:01;95837.97;;;20.43;100.00
41686;BME280;27370;42.764;23.432;2023-09-12T08:14:26;95841.34;;;20.71;100.00
41686;BME280;27370;42.764;23.432;2023-09-12T08:16:52;95839.19;;;20.99;100.00
41686;BME280;27370;42.764;23.432;2023-09-12T08:19:18;95837.50;;;21.01;100.00
41686;BME280;27370;42.764;23.432;2023-09-12T08:21:43;95837.03;;;21.27;100.00
41686;BME280;27370;42.764;23.432;2023-09-12T08:24:11;95845.44;;;21.32;100.00
41686;BME280;27370;42.764;23.432;2023-09-12T08:26:36;95840.41;;;21.46;100.00
41686;BME280;27370;42.764;23.432;2023-09-12T08:29:02;95843.28;;;21.66;100.00
41686;BME280;27370;42.764;23.432;2023-09-12T08:31:27;95835.91;;;21.87;100.00
41686;BME280;27370;42.764;23.432;2023-09-12T08:33:53;95837.91;;;22.01;100.00
41686;BME280;27370;42.764;23.432;2023-09-12T08:36:18;95828.78;;;22.10;100.00
41686;BME280;27370;42.764;23.432;2023-09-12T08:38:45;95826.59;;;22.14;100.00
41686;BME280;27370;42.764;23.432;2023-09-12T08:41:11;95822.28;;;22.42;100.00
41686;BME280;27370;42.764;23.432;2023-09-12T08:43:36;95818.41;;;22.69;100.00
41686;BME280;27370;42.764;23.432;2023-09-12T08:46:02;95817.34;;;22.46;100.00
41686;BME280;27370;42.764;23.432;2023-09-12T08:48:29;95823.34;;;22.45;100.00
41686;BME280;27370;42.764;23.432;2023-09-12T08:50:57;95812.41;;;22.71;100.00
41686;BME280;27370;42.764;23.432;2023-09-12T08:53:23;95809.44;;;22.89;100.00
41686;BME280;27370;42.764;23.432;2023-09-12T08:55:49;95808.31;;;23.21;100.00
41686;BME280;27370;42.764;23.432;2023-09-12T08:58:14;95813.06;;;23.41;100.00
41686;BME280;27370;42.764;23.432;2023-09-12T09:00:41;95810.41;;;23.52;100.00
41686;BME280;27370;42.764;23.432;2023-09-12T09:03:07;95800.06;;;23.47;100.00
41686;BME280;27370;42.764;23.432;2023-09-12T09:05:33;95806.94;;;23.32;100.00
41686;BME280;27370;42.764;23.432;2023-09-12T09:08:01;95810.03;;;23.39;100.00
41686;BME280;27370;42.764;23.432;2023-09-12T09:10:27;95803.16;;;23.55;100.00
41686;BME280;27370;42.764;23.432;2023-09-12T09:12:57;95804.38;;;23.74;100.00
41686;BME280;27370;42.764;23.432;2023-09-12T09:15:31;95804.53;;;23.91;100.00
41686;BME280;27370;42.764;23.432;2023-09-12T09:17:57;95799.44;;;24.16;100.00
41686;BME280;27370;42.764;23.432;2023-09-12T09:20:31;95796.31;;;24.28;100.00
41686;BME280;27370;42.764;23.432;2023-09-12T09:23:04;95802.69;;;24.40;100.00
41686;BME280;27370;42.764;23.432;2023-09-12T09:25:39;95788.41;;;24.47;100.00
41686;BME280;27370;42.764;23.432;2023-09-12T09:28:15;95781.19;;;24.66;100.00
41686;BME280;27370;42.764;23.432;2023-09-12T09:30:43;95790.88;;;24.88;100.00
41686;BME280;27370;42.764;23.432;2023-09-12T09:33:10;95788.47;;;25.01;100.00
41686;BME280;27370;42.764;23.432;2023-09-12T09:35:36;95783.41;;;24.99;100.00
41686;BME280;27370;42.764;23.432;2023-09-12T09:38:03;95779.41;;;25.06;100.00
41686;BME280;27370;42.764;23.432;2023-09-12T09:40:32;95777.66;;;25.09;100.00
41686;BME280;27370;42.764;23.432;2023-09-12T09:43:02;95780.41;;;25.03;100.00
41686;BME280;27370;42.764;23.432;2023-09-12T09:45:31;95774.66;;;25.12;100.00
41686;BME280;27370;42.764;23.432;2023-09-12T09:48:04;95772.19;;;25.31;100.00
41686;BME280;27370;42.764;23.432;2023-09-12T09:50:29;95771.94;;;25.34;100.00
41686;BME280;27370;42.764;23.432;2023-09-12T09:52:55;95768.75;;;25.64;100.00
41686;BME280;27370;42.764;23.432;2023-09-12T09:55:24;95766.69;;;25.42;100.00
41686;BME280;27370;42.764;23.432;2023-09-12T09:57:50;95769.97;;;25.52;100.00
41686;BME280;27370;42.764;23.432;2023-09-12T10:00:22;95766.75;;;25.70;100.00
41686;BME280;27370;42.764;23.432;2023-09-12T10:02:49;95758.69;;;25.78;100.00
41686;BME280;27370;42.764;23.432;2023-09-12T10:05:16;95753.91;;;25.95;100.00
41686;BME280;27370;42.764;23.432;2023-09-12T10:07:47;95757.94;;;26.28;100.00
41686;BME280;27370;42.764;23.432;2023-09-12T10:10:16;95751.13;;;26.29;100.00
41686;BME280;27370;42.764;23.432;2023-09-12T10:12:49;95754.13;;;26.25;100.00
41686;BME280;27370;42.764;23.432;2023-09-12T10:15:18;95750.84;;;26.43;94.13
41686;BME280;27370;42.764;23.432;2023-09-12T10:17:46;95747.09;;;26.13;96.17
41686;BME280;27370;42.764;23.432;2023-09-12T10:20:20;95744.03;;;26.22;93.51
41686;BME280;27370;42.764;23.432;2023-09-12T10:25:21;95733.19;;;26.52;99.17
41686;BME280;27370;42.764;23.432;2023-09-12T10:27:49;95734.41;;;26.62;95.89
41686;BME280;27370;42.764;23.432;2023-09-12T10:30:15;95740.72;;;26.63;96.42
41686;BME280;27370;42.764;23.432;2023-09-12T10:32:41;95740.00;;;26.51;95.23
41686;BME280;27370;42.764;23.432;2023-09-12T10:35:10;95725.13;;;26.48;100.00
41686;BME280;27370;42.764;23.432;2023-09-12T10:37:37;95726.03;;;26.68;99.31
41686;BME280;27370;42.764;23.432;2023-09-12T10:40:08;95730.25;;;26.91;96.19
41686;BME280;27370;42.764;23.432;2023-09-12T10:42:34;95714.84;;;27.01;92.16
41686;BME280;27370;42.764;23.432;2023-09-12T10:45:00;95719.25;;;27.27;90.53
41686;BME280;27370;42.764;23.432;2023-09-12T10:47:29;95715.41;;;27.35;92.65
41686;BME280;27370;42.764;23.432;2023-09-12T10:49:56;95716.06;;;27.53;88.41
41686;BME280;27370;42.764;23.432;2023-09-12T10:52:26;95710.53;;;27.47;89.55
41686;BME280;27370;42.764;23.432;2023-09-12T10:54:52;95708.41;;;27.59;83.78
41686;BME280;27370;42.764;23.432;2023-09-12T10:57:19;95705.88;;;27.66;91.74
41686;BME280;27370;42.764;23.432;2023-09-12T11:04:55;95697.63;;;27.85;78.52
41686;BME280;27370;42.764;23.432;2023-09-12T11:12:42;95690.91;;;27.99;77.64
41686;BME280;27370;42.764;23.432;2023-09-12T11:15:09;95687.97;;;27.92;73.96
41686;BME280;27370;42.764;23.432;2023-09-12T11:17:39;95676.69;;;28.09;79.13
41686;BME280;27370;42.764;23.432;2023-09-12T11:20:06;95681.19;;;28.12;76.83
41686;BME280;27370;42.764;23.432;2023-09-12T11:22:42;95678.97;;;28.34;82.94
41686;BME280;27370;42.764;23.432;2023-09-12T11:30:20;95677.75;;;28.98;74.70
41686;BME280;27370;42.764;23.432;2023-09-12T11:32:49;95679.25;;;29.17;75.43
41686;BME280;27370;42.764;23.432;2023-09-12T11:35:16;95669.16;;;29.14;78.56
41686;BME280;27370;42.764;23.432;2023-09-12T11:37:50;95673.38;;;29.21;74.76
41686;BME280;27370;42.764;23.432;2023-09-12T11:40:40;95675.91;;;29.19;69.23
41686;BME280;27370;42.764;23.432;2023-09-12T11:43:09;95668.56;;;29.03;71.05
41686;BME280;27370;42.764;23.432;2023-09-12T11:45:43;95672.59;;;28.83;67.25
41686;BME280;27370;42.764;23.432;2023-09-12T11:48:09;95661.44;;;28.83;63.14
41686;BME280;27370;42.764;23.432;2023-09-12T11:50:36;95666.81;;;29.00;59.81
41686;BME280;27370;42.764;23.432;2023-09-12T11:53:11;95659.72;;;29.17;55.50
41686;BME280;27370;42.764;23.432;2023-09-12T11:58:09;95653.25;;;29.47;53.53
41686;BME280;27370;42.764;23.432;2023-09-12T12:00:36;95654.03;;;29.61;58.77
41686;BME280;27370;42.764;23.432;2023-09-12T12:03:03;95654.94;;;29.82;56.15
41686;BME280;27370;42.764;23.432;2023-09-12T12:05:29;95646.94;;;29.92;58.23
41686;BME280;27370;42.764;23.432;2023-09-12T12:07:55;95650.75;;;29.75;55.99
41686;BME280;27370;42.764;23.432;2023-09-12T12:10:23;95651.84;;;29.85;52.16
41686;BME280;27370;42.764;23.432;2023-09-12T12:12:52;95648.81;;;29.83;53.05
41686;BME280;27370;42.764;23.432;2023-09-12T12:15:18;95641.78;;;29.96;56.77
41686;BME280;27370;42.764;23.432;2023-09-12T12:17:43;95646.22;;;30.17;57.90
41686;BME280;27370;42.764;23.432;2023-09-12T12:20:10;95641.19;;;30.42;61.45
41686;BME280;27370;42.764;23.432;2023-09-12T12:22:40;95632.13;;;30.76;56.71
41686;BME280;27370;42.764;23.432;2023-09-12T12:25:10;95630.63;;;30.75;61.33
41686;BME280;27370;42.764;23.432;2023-09-12T12:27:42;95624.34;;;30.95;62.28
41686;BME280;27370;42.764;23.432;2023-09-12T12:30:09;95623.81;;;30.97;57.05
41686;BME280;27370;42.764;23.432;2023-09-12T12:32:45;95622.84;;;30.94;53.98
41686;BME280;27370;42.764;23.432;2023-09-12T12:35:22;95617.25;;;30.94;55.00
41686;BME280;27370;42.764;23.432;2023-09-12T12:37:49;95626.13;;;30.32;54.96
41686;BME280;27370;42.764;23.432;2023-09-12T12:40:16;95623.47;;;30.40;55.62
41686;BME280;27370;42.764;23.432;2023-09-12T12:42:42;95623.88;;;30.70;56.63
41686;BME280;27370;42.764;23.432;2023-09-12T12:45:16;95617.19;;;30.87;51.67
41686;BME280;27370;42.764;23.432;2023-09-12T12:47:43;95619.59;;;30.69;55.56
41686;BME280;27370;42.764;23.432;2023-09-12T12:50:11;95614.19;;;30.85;56.08
41686;BME280;27370;42.764;23.432;2023-09-12T12:52:40;95607.16;;;30.91;62.30
41686;BME280;27370;42.764;23.432;2023-09-12T12:55:11;95608.94;;;30.81;50.85
41686;BME280;27370;42.764;23.432;2023-09-12T12:57:41;95606.41;;;30.91;53.77
41686;BME280;27370;42.764;23.432;2023-09-12T13:00:14;95606.75;;;30.87;53.97
41686;BME280;27370;42.764;23.432;2023-09-12T13:02:42;95606.66;;;30.80;55.51
41686;BME280;27370;42.764;23.432;2023-09-12T13:05:28;95612.16;;;30.59;50.53
41686;BME280;27370;42.764;23.432;2023-09-12T13:07:54;95603.88;;;30.66;53.14